Artas, South Dakota
Current Conditions -  °F | °C
As of 6:52 AM on Saturday 20 Dec 2014 (Local Time) from KMBG Reporting Station
Clear Clear  
Wind Chill:   Ceiling: Unl
Heat Index: 19°   Visibility: 7mi
Dew Point: 16°   Wind: 9mph
Humidity: 88%   Direction: 140°SE
Pressure: 29.9"   Gusts: NA
Location:  45.7737°N, 99.5895°W
Report Text: KMBG 201252Z AUTO 14008KT 7SM CLR M07/M09 A2990 RMK AO2 SLP153 T10721089
Loading
Personal Weather Stations






























Interactive Weather Map New forecast layout! Learn more

10-Day Weather Forecast

Advertisements
Track Severe Weather on mobile